Terminal Aerodrome Forecast
Issued by NWS Greer, SC

Home | Current Version | Previous Version | Text Only | Print | Product List | Glossary On
Versions: 1 2 3 4 5 6 7 8 9 10 11 12 13 14 15 16 17
000
FTUS42 KGSP 280500
TAFGSP
TAF
KGSP 280536Z 2806/2906 22010KT P6SM VCTS BKN160CB
      TEMPO 2806/2808 VRB10G18KT 6SM TSRA OVC040CB
     FM281100 26007KT P6SM SCT150
     FM281600 28012G18KT P6SM FEW060 SCT250
     FM282300 32008KT P6SM FEW250=

USA.gov is the U.S. government's official web portal to all federal, state and local government web resources and services.